createdAt,value
2022-11-05T00:04:34.998Z,44.76
2022-11-05T00:09:36.463Z,44.82
2022-11-05T00:14:56.281Z,45.03
2022-11-05T00:19:57.740Z,47.52
2022-11-05T00:25:14.479Z,46.73
2022-11-05T00:30:18.424Z,46.07
2022-11-05T00:35:21.671Z,45.38
2022-11-05T00:40:23.157Z,47.16
2022-11-05T00:45:24.625Z,44.81
2022-11-05T00:50:26.368Z,40.70
2022-11-05T00:55:37.968Z,39.71
2022-11-05T01:00:40.840Z,41.98
2022-11-05T01:05:52.603Z,40.91
2022-11-05T01:10:55.587Z,40.50
2022-11-05T01:15:57.092Z,40.50
2022-11-05T01:20:58.534Z,40.80
2022-11-05T01:26:00.016Z,41.50
2022-11-05T01:31:01.484Z,41.63
2022-11-05T01:36:04.815Z,42.82
2022-11-05T01:41:06.434Z,42.60
2022-11-05T01:46:07.890Z,45.60
2022-11-05T01:51:11.901Z,45.22
2022-11-05T01:56:20.512Z,44.08
2022-11-05T02:01:22.049Z,43.74
2022-11-05T02:06:23.589Z,44.42
2022-11-05T02:11:25.041Z,44.23
2022-11-05T02:17:16.895Z,43.26
2022-11-05T02:22:53.493Z,45.14
2022-11-05T02:28:21.487Z,43.70
2022-11-05T02:33:41.952Z,42.55
2022-11-05T02:39:13.515Z,42.98
2022-11-05T02:44:29.176Z,44.56
2022-11-05T02:49:39.348Z,44.14
2022-11-05T02:54:54.942Z,43.00
2022-11-05T03:00:05.425Z,46.66
2022-11-05T03:05:06.908Z,44.11
2022-11-05T03:10:32.374Z,44.08
2022-11-05T03:15:45.649Z,45.56
2022-11-05T03:20:50.352Z,45.58
2022-11-05T03:25:55.549Z,45.37
2022-11-05T03:30:57.004Z,47.01
2022-11-05T03:36:00.351Z,45.08
2022-11-05T03:41:07.367Z,44.69
2022-11-05T03:46:21.977Z,44.24
2022-11-05T03:51:36.201Z,46.89
2022-11-05T03:56:41.375Z,45.35
2022-11-05T04:01:43.022Z,45.29
2022-11-05T04:07:02.894Z,46.90
2022-11-05T04:12:23.064Z,42.11
2022-11-05T04:17:24.537Z,42.33
2022-11-05T04:22:45.400Z,43.25
2022-11-05T04:27:46.966Z,46.32
2022-11-05T04:33:00.577Z,46.66
2022-11-05T04:38:02.451Z,46.04
2022-11-05T04:43:04.051Z,45.69
2022-11-05T04:48:05.542Z,43.69
2022-11-05T04:53:06.999Z,45.92
2022-11-05T04:58:08.734Z,45.18
2022-11-05T05:03:10.469Z,47.42
2022-11-05T05:08:12.164Z,45.86
2022-11-05T05:13:13.805Z,46.92
2022-11-05T05:18:15.435Z,48.74
2022-11-05T05:23:16.899Z,46.81
2022-11-05T05:28:18.342Z,47.75
2022-11-05T05:33:19.825Z,44.10
2022-11-05T05:38:21.275Z,44.17
2022-11-05T05:43:22.718Z,45.37
2022-11-05T05:48:24.460Z,47.70
2022-11-05T05:53:25.917Z,45.88
2022-11-05T05:58:30.526Z,46.23
2022-11-05T06:03:32.072Z,48.88
2022-11-05T06:08:33.648Z,48.59
2022-11-05T06:13:35.804Z,48.96
2022-11-05T06:18:37.356Z,50.42
2022-11-05T06:23:40.191Z,49.38
2022-11-05T06:28:42.160Z,48.42
2022-11-05T06:33:43.694Z,46.62
2022-11-05T06:38:45.207Z,46.66
2022-11-05T06:43:46.659Z,47.30
2022-11-05T06:48:48.124Z,46.38
2022-11-05T06:53:49.591Z,47.82
2022-11-05T06:58:51.047Z,47.31
2022-11-05T07:03:52.513Z,50.17
2022-11-05T07:08:53.965Z,49.01
2022-11-05T07:13:55.439Z,48.92
2022-11-05T07:18:56.900Z,50.82
2022-11-05T07:23:58.359Z,51.98
2022-11-05T07:28:59.816Z,54.32
2022-11-05T07:34:01.657Z,54.55
2022-11-05T07:39:03.142Z,56.33
2022-11-05T07:44:04.599Z,54.33
2022-11-05T07:49:06.049Z,53.16
2022-11-05T07:54:07.515Z,54.50
2022-11-05T07:59:08.993Z,56.21
2022-11-05T08:04:10.452Z,53.99
2022-11-05T08:09:11.929Z,50.49
2022-11-05T08:14:13.539Z,49.20
2022-11-05T08:19:15.003Z,52.83
2022-11-05T08:24:16.503Z,53.15
2022-11-05T08:29:17.990Z,55.72
2022-11-05T08:34:19.440Z,57.87
2022-11-05T08:39:20.896Z,55.40
2022-11-05T08:44:22.423Z,54.35
2022-11-05T08:49:23.874Z,54.10
2022-11-05T08:54:25.357Z,55.43
2022-11-05T08:59:29.143Z,56.44
2022-11-05T09:04:30.634Z,54.94
2022-11-05T09:09:32.845Z,55.34
2022-11-05T09:14:34.306Z,56.63
2022-11-05T09:19:39.840Z,54.23
2022-11-05T09:24:42.045Z,56.12
2022-11-05T09:29:43.513Z,55.82
2022-11-05T09:34:45.340Z,54.77
2022-11-05T09:39:46.802Z,56.12
2022-11-05T09:44:51.140Z,56.46
2022-11-05T09:49:53.572Z,56.22
2022-11-05T09:54:55.543Z,56.84
2022-11-05T09:59:58.851Z,56.98
2022-11-05T10:05:09.684Z,56.33
2022-11-05T10:10:41.028Z,56.92
2022-11-05T10:15:46.902Z,55.91
2022-11-05T10:20:48.403Z,56.63
2022-11-05T10:26:01.620Z,56.82
2022-11-05T10:31:05.214Z,55.56
2022-11-05T10:36:10.009Z,55.08
2022-11-05T10:41:29.351Z,54.26
2022-11-05T10:46:38.539Z,55.65
2022-11-05T10:51:40.002Z,56.21
2022-11-05T10:56:41.554Z,57.00
2022-11-05T11:01:43.090Z,55.83
2022-11-05T11:06:49.577Z,55.27
2022-11-05T11:12:23.645Z,55.49
2022-11-05T11:17:38.837Z,55.12
2022-11-05T11:22:40.357Z,53.02
2022-11-05T11:27:41.838Z,54.46
2022-11-05T11:32:43.344Z,55.32
2022-11-05T11:37:44.807Z,54.69
2022-11-05T11:42:48.105Z,54.74
2022-11-05T11:47:50.116Z,54.88
2022-11-05T11:52:51.572Z,53.79
2022-11-05T11:58:05.757Z,55.24
2022-11-05T12:03:26.121Z,56.47
2022-11-05T12:08:45.104Z,56.14
2022-11-05T12:14:04.167Z,55.91
2022-11-05T12:19:29.529Z,55.46
2022-11-05T12:24:44.812Z,54.66
2022-11-05T12:30:05.143Z,55.66
2022-11-05T12:35:25.577Z,55.36
2022-11-05T12:40:57.941Z,55.79
2022-11-05T12:46:06.416Z,54.83
2022-11-05T12:51:20.601Z,55.18
2022-11-05T12:56:30.654Z,54.34
2022-11-05T13:01:36.987Z,53.73
2022-11-05T13:06:40.359Z,53.59
2022-11-05T13:11:59.126Z,53.55
2022-11-05T13:17:27.691Z,54.14
2022-11-05T13:22:37.048Z,53.35
2022-11-05T13:27:50.860Z,53.16
2022-11-05T13:33:06.342Z,53.38
2022-11-05T13:38:41.451Z,52.59
2022-11-05T13:44:03.101Z,56.01
2022-11-05T13:49:33.533Z,57.18
2022-11-05T13:54:43.727Z,57.55
2022-11-05T13:59:56.789Z,57.23
2022-11-05T14:05:01.381Z,57.10
2022-11-05T14:10:26.235Z,56.01
2022-11-05T14:15:28.784Z,55.51
2022-11-05T14:20:32.866Z,54.49
2022-11-05T14:25:34.167Z,55.49
2022-11-05T14:30:45.965Z,54.26
2022-11-05T14:35:47.422Z,55.24
2022-11-05T14:40:48.909Z,54.28
2022-11-05T14:46:00.883Z,55.47
2022-11-05T14:51:02.344Z,55.19
2022-11-05T14:56:04.874Z,57.64
2022-11-05T15:01:29.868Z,59.06
2022-11-05T15:06:32.066Z,58.49
2022-11-05T15:11:37.288Z,57.37
2022-11-05T15:16:47.968Z,57.98
2022-11-05T15:21:49.537Z,58.75
2022-11-05T15:27:04.795Z,58.94
2022-11-05T15:32:11.699Z,58.34
2022-11-05T15:37:13.264Z,58.97
2022-11-05T15:42:22.841Z,58.81
2022-11-05T15:47:24.807Z,58.30
2022-11-05T15:52:44.036Z,57.41
2022-11-05T15:57:50.655Z,56.75
2022-11-05T16:02:56.307Z,56.15
2022-11-05T16:07:58.663Z,55.00
2022-11-05T16:13:32.275Z,55.22
2022-11-05T16:18:35.466Z,58.20
2022-11-05T16:23:53.138Z,58.56
2022-11-05T16:28:54.928Z,57.71
2022-11-05T16:33:56.497Z,56.11
2022-11-05T16:38:58.537Z,57.15
2022-11-05T16:44:00.112Z,56.08
2022-11-05T16:49:01.573Z,56.33
2022-11-05T16:54:03.063Z,56.41
2022-11-05T16:59:04.520Z,55.11
2022-11-05T17:04:05.998Z,55.41
2022-11-05T17:09:07.473Z,55.74
2022-11-05T17:14:10.756Z,56.33
2022-11-05T17:19:14.602Z,56.74
2022-11-05T17:24:16.060Z,57.01
2022-11-05T17:29:17.521Z,57.28
2022-11-05T17:34:19.028Z,56.87
2022-11-05T17:39:20.503Z,56.58
2022-11-05T17:44:21.968Z,56.83
2022-11-05T17:49:23.501Z,56.61
2022-11-05T17:54:24.958Z,57.75
2022-11-05T17:59:26.404Z,56.09
2022-11-05T18:04:27.874Z,56.31
2022-11-05T18:09:29.341Z,56.46
2022-11-05T18:14:30.789Z,56.07
2022-11-05T18:19:32.314Z,55.90
2022-11-05T18:24:33.934Z,55.93
2022-11-05T18:29:35.405Z,55.42
2022-11-05T18:34:36.877Z,55.68
2022-11-05T18:39:38.341Z,55.24
2022-11-05T18:44:39.811Z,55.76
2022-11-05T18:49:41.328Z,56.49
2022-11-05T18:54:42.801Z,56.23
2022-11-05T18:59:46.684Z,55.96
2022-11-05T19:05:13.927Z,54.53
2022-11-05T19:10:09.666Z,55.09
2022-11-05T19:15:11.211Z,55.07
2022-11-05T19:20:12.687Z,55.70
2022-11-05T19:25:14.147Z,55.59
2022-11-05T19:30:15.708Z,55.73
2022-11-05T19:35:17.215Z,55.72
2022-11-05T19:40:19.158Z,55.76
2022-11-05T19:45:43.517Z,55.30
2022-11-05T19:50:42.694Z,56.10
2022-11-05T19:55:44.987Z,55.45
2022-11-05T20:00:47.566Z,56.35
2022-11-05T20:05:49.022Z,57.34
2022-11-05T20:10:54.152Z,56.11
2022-11-05T20:15:55.629Z,55.88
2022-11-05T20:27:19.575Z,56.83
2022-11-05T20:32:21.046Z,57.09
2022-11-05T20:37:22.527Z,57.45
2022-11-05T20:42:24.016Z,57.21
2022-11-05T20:47:25.544Z,56.77
2022-11-05T20:52:27.193Z,56.28
2022-11-05T20:57:28.644Z,56.19
2022-11-05T21:02:30.292Z,56.71
2022-11-05T21:07:31.889Z,56.20
2022-11-05T21:12:33.396Z,56.98
2022-11-05T21:17:35.301Z,56.35
2022-11-05T21:22:36.829Z,56.79
2022-11-05T21:27:43.260Z,56.98
2022-11-05T21:32:45.124Z,56.97
2022-11-05T21:37:46.589Z,57.12
2022-11-05T21:42:48.051Z,56.82
2022-11-05T21:47:49.504Z,56.35
2022-11-05T21:53:09.380Z,56.60
2022-11-05T21:58:33.878Z,57.17
2022-11-05T22:03:35.348Z,57.44
2022-11-05T22:08:36.812Z,56.98
2022-11-05T22:13:38.274Z,57.38
2022-11-05T22:18:39.726Z,56.38
2022-11-05T22:23:41.203Z,56.80
2022-11-05T22:28:42.667Z,56.16
2022-11-05T22:33:44.162Z,56.57
2022-11-05T22:38:45.613Z,56.89
2022-11-05T22:43:47.062Z,58.14
2022-11-05T22:48:48.604Z,58.64
2022-11-05T22:53:50.070Z,59.21
2022-11-05T22:58:51.679Z,58.45
2022-11-05T23:03:54.543Z,59.36
2022-11-05T23:09:14.795Z,59.49
2022-11-05T23:14:16.424Z,59.22
2022-11-05T23:19:36.316Z,59.45
2022-11-05T23:24:38.079Z,59.78
2022-11-05T23:29:39.549Z,58.18
2022-11-05T23:34:41.007Z,58.73
2022-11-05T23:39:43.067Z,58.56
2022-11-05T23:45:03.005Z,59.03
2022-11-05T23:50:04.600Z,59.58
2022-11-05T23:55:06.216Z,59.20
